Birken, Canada
Current Conditions -  °F | °C
As of 6:00 PM on Monday 20 Oct 2014 (Local Time) from CWAE Reporting Station
Broken Clouds Broken Clouds  
Wind Chill: 50°   Ceiling: 3000
Heat Index: 50°   Visibility: 15mi
Dew Point: 45°   Wind: 6mph
Humidity: 82%   Direction: 180°S
Pressure: 29.7"   Gusts: NA
Location:  50.48°N, 122.61°W
Report Text: CWAE 210100Z 18005KT 15SM BKN030 10/07 A2970 RMK SC7 LAST OBS/NEXT 211300UTC WND ESTD SLP058 DENSITY ALT 2300FT
Loading
Personal Weather Stations






























Interactive Weather Map
Tropical Storm Tracking
New forecast layout! Learn more

10-Day Weather Forecast

Advertisements
Track Severe Weather on mobile